sensor_id;sensor_type;location;lat;lon;timestamp;pressure;altitude;pressure_sealevel;temperature;humidity
46430;BME280;32131;53.454;-6.180;2023-02-02T00:01:33;102313.56;;;7.34;100.00
46430;BME280;32131;53.454;-6.180;2023-02-02T00:04:02;102318.59;;;7.32;100.00
46430;BME280;32131;53.454;-6.180;2023-02-02T00:06:31;102314.97;;;7.29;100.00
46430;BME280;32131;53.454;-6.180;2023-02-02T00:09:01;102315.69;;;7.26;100.00
46430;BME280;32131;53.454;-6.180;2023-02-02T00:11:29;102321.72;;;7.27;100.00
46430;BME280;32131;53.454;-6.180;2023-02-02T00:13:57;102299.25;;;7.22;100.00
46430;BME280;32131;53.454;-6.180;2023-02-02T00:16:38;102300.03;;;7.21;100.00
46430;BME280;32131;53.454;-6.180;2023-02-02T00:19:07;102294.72;;;7.18;100.00
46430;BME280;32131;53.454;-6.180;2023-02-02T00:21:35;102308.41;;;7.17;100.00
46430;BME280;32131;53.454;-6.180;2023-02-02T00:24:07;102303.31;;;7.19;100.00
46430;BME280;32131;53.454;-6.180;2023-02-02T00:26:36;102307.91;;;7.24;100.00
46430;BME280;32131;53.454;-6.180;2023-02-02T00:29:05;102303.09;;;7.31;100.00
46430;BME280;32131;53.454;-6.180;2023-02-02T00:31:34;102305.03;;;7.35;100.00
46430;BME280;32131;53.454;-6.180;2023-02-02T00:34:02;102299.00;;;7.34;100.00
46430;BME280;32131;53.454;-6.180;2023-02-02T00:36:30;102312.84;;;7.36;100.00
46430;BME280;32131;53.454;-6.180;2023-02-02T00:38:58;102305.38;;;7.41;100.00
46430;BME280;32131;53.454;-6.180;2023-02-02T00:41:28;102308.25;;;7.47;100.00
46430;BME280;32131;53.454;-6.180;2023-02-02T00:43:56;102312.28;;;7.59;100.00
46430;BME280;32131;53.454;-6.180;2023-02-02T00:46:41;102312.94;;;7.71;100.00
46430;BME280;32131;53.454;-6.180;2023-02-02T00:49:09;102309.88;;;7.78;100.00
46430;BME280;32131;53.454;-6.180;2023-02-02T00:51:37;102307.63;;;7.84;100.00
46430;BME280;32131;53.454;-6.180;2023-02-02T00:54:05;102313.09;;;7.91;100.00
46430;BME280;32131;53.454;-6.180;2023-02-02T00:56:35;102307.38;;;7.96;100.00
46430;BME280;32131;53.454;-6.180;2023-02-02T00:59:03;102311.00;;;8.00;100.00
46430;BME280;32131;53.454;-6.180;2023-02-02T01:01:31;102313.69;;;8.03;100.00
46430;BME280;32131;53.454;-6.180;2023-02-02T01:03:59;102299.16;;;8.03;100.00
46430;BME280;32131;53.454;-6.180;2023-02-02T01:06:27;102305.28;;;8.06;100.00
46430;BME280;32131;53.454;-6.180;2023-02-02T01:08:55;102312.16;;;8.07;100.00
46430;BME280;32131;53.454;-6.180;2023-02-02T01:11:24;102304.53;;;8.08;100.00
46430;BME280;32131;53.454;-6.180;2023-02-02T01:13:53;102301.16;;;8.09;100.00
46430;BME280;32131;53.454;-6.180;2023-02-02T01:16:21;102299.53;;;8.11;100.00
46430;BME280;32131;53.454;-6.180;2023-02-02T01:18:50;102295.78;;;8.05;100.00
46430;BME280;32131;53.454;-6.180;2023-02-02T01:21:19;102297.16;;;7.98;100.00
46430;BME280;32131;53.454;-6.180;2023-02-02T01:23:47;102293.63;;;7.96;100.00
46430;BME280;32131;53.454;-6.180;2023-02-02T01:26:15;102294.59;;;7.98;100.00
46430;BME280;32131;53.454;-6.180;2023-02-02T01:28:44;102282.75;;;8.01;100.00
46430;BME280;32131;53.454;-6.180;2023-02-02T01:31:15;102286.19;;;8.02;100.00
46430;BME280;32131;53.454;-6.180;2023-02-02T01:33:44;102279.47;;;8.04;100.00
46430;BME280;32131;53.454;-6.180;2023-02-02T01:36:15;102276.09;;;8.05;100.00
46430;BME280;32131;53.454;-6.180;2023-02-02T01:38:44;102276.66;;;7.99;100.00
46430;BME280;32131;53.454;-6.180;2023-02-02T01:41:14;102271.94;;;7.91;100.00
46430;BME280;32131;53.454;-6.180;2023-02-02T01:43:54;102277.66;;;7.85;100.00
46430;BME280;32131;53.454;-6.180;2023-02-02T01:46:26;102279.25;;;7.83;100.00
46430;BME280;32131;53.454;-6.180;2023-02-02T01:48:59;102276.03;;;7.87;100.00
46430;BME280;32131;53.454;-6.180;2023-02-02T01:51:34;102270.78;;;7.85;100.00
46430;BME280;32131;53.454;-6.180;2023-02-02T01:54:05;102276.59;;;7.81;100.00
46430;BME280;32131;53.454;-6.180;2023-02-02T01:56:40;102268.09;;;7.82;100.00
46430;BME280;32131;53.454;-6.180;2023-02-02T01:59:11;102268.09;;;7.82;100.00
46430;BME280;32131;53.454;-6.180;2023-02-02T02:01:43;102278.22;;;7.79;100.00
46430;BME280;32131;53.454;-6.180;2023-02-02T02:04:11;102272.19;;;7.79;100.00
46430;BME280;32131;53.454;-6.180;2023-02-02T02:06:40;102279.81;;;7.77;100.00
46430;BME280;32131;53.454;-6.180;2023-02-02T02:09:08;102278.69;;;7.89;100.00
46430;BME280;32131;53.454;-6.180;2023-02-02T02:11:36;102270.63;;;7.99;100.00
46430;BME280;32131;53.454;-6.180;2023-02-02T02:14:05;102263.16;;;8.03;100.00
46430;BME280;32131;53.454;-6.180;2023-02-02T02:17:11;102268.28;;;8.03;100.00
46430;BME280;32131;53.454;-6.180;2023-02-02T02:23:56;102271.28;;;7.95;100.00
46430;BME280;32131;53.454;-6.180;2023-02-02T02:32:51;102271.50;;;7.99;100.00
46430;BME280;32131;53.454;-6.180;2023-02-02T02:35:29;102248.28;;;7.98;100.00
46430;BME280;32131;53.454;-6.180;2023-02-02T02:38:03;102257.06;;;7.85;100.00
46430;BME280;32131;53.454;-6.180;2023-02-02T02:40:39;102255.88;;;7.78;100.00
46430;BME280;32131;53.454;-6.180;2023-02-02T02:43:12;102244.41;;;7.71;100.00
46430;BME280;32131;53.454;-6.180;2023-02-02T02:45:43;102248.34;;;7.65;100.00
46430;BME280;32131;53.454;-6.180;2023-02-02T02:48:13;102243.69;;;7.58;100.00
46430;BME280;32131;53.454;-6.180;2023-02-02T02:50:41;102247.78;;;7.54;100.00
46430;BME280;32131;53.454;-6.180;2023-02-02T02:53:12;102250.66;;;7.60;100.00
46430;BME280;32131;53.454;-6.180;2023-02-02T02:55:48;102266.50;;;7.68;100.00
46430;BME280;32131;53.454;-6.180;2023-02-02T02:58:26;102260.44;;;7.84;100.00
46430;BME280;32131;53.454;-6.180;2023-02-02T03:01:04;102258.41;;;7.95;100.00
46430;BME280;32131;53.454;-6.180;2023-02-02T03:06:30;102258.31;;;8.10;100.00
46430;BME280;32131;53.454;-6.180;2023-02-02T03:09:02;102256.13;;;8.17;100.00
46430;BME280;32131;53.454;-6.180;2023-02-02T03:11:33;102249.72;;;8.27;100.00
46430;BME280;32131;53.454;-6.180;2023-02-02T03:14:02;102260.41;;;8.35;100.00
46430;BME280;32131;53.454;-6.180;2023-02-02T03:16:35;102255.34;;;8.37;100.00
46430;BME280;32131;53.454;-6.180;2023-02-02T03:19:06;102253.72;;;8.39;100.00
46430;BME280;32131;53.454;-6.180;2023-02-02T03:21:34;102250.25;;;8.38;100.00
46430;BME280;32131;53.454;-6.180;2023-02-02T03:24:02;102268.44;;;8.41;100.00
46430;BME280;32131;53.454;-6.180;2023-02-02T03:26:30;102252.97;;;8.41;100.00
46430;BME280;32131;53.454;-6.180;2023-02-02T03:28:59;102253.06;;;8.43;100.00
46430;BME280;32131;53.454;-6.180;2023-02-02T03:31:28;102263.41;;;8.44;100.00
46430;BME280;32131;53.454;-6.180;2023-02-02T03:33:56;102265.19;;;8.45;100.00
46430;BME280;32131;53.454;-6.180;2023-02-02T03:36:26;102259.22;;;8.46;100.00
46430;BME280;32131;53.454;-6.180;2023-02-02T03:38:54;102262.53;;;8.44;100.00
46430;BME280;32131;53.454;-6.180;2023-02-02T03:41:22;102265.84;;;8.41;100.00
46430;BME280;32131;53.454;-6.180;2023-02-02T03:43:50;102266.81;;;8.43;100.00
46430;BME280;32131;53.454;-6.180;2023-02-02T03:46:18;102268.56;;;8.44;100.00
46430;BME280;32131;53.454;-6.180;2023-02-02T03:48:46;102267.94;;;8.48;100.00
46430;BME280;32131;53.454;-6.180;2023-02-02T03:51:14;102261.31;;;8.54;100.00
46430;BME280;32131;53.454;-6.180;2023-02-02T03:53:44;102269.84;;;8.53;100.00
46430;BME280;32131;53.454;-6.180;2023-02-02T03:56:13;102253.47;;;8.51;100.00
46430;BME280;32131;53.454;-6.180;2023-02-02T03:58:41;102264.69;;;8.53;100.00
46430;BME280;32131;53.454;-6.180;2023-02-02T04:01:10;102257.94;;;8.55;100.00
46430;BME280;32131;53.454;-6.180;2023-02-02T04:03:39;102258.84;;;8.55;100.00
46430;BME280;32131;53.454;-6.180;2023-02-02T04:06:07;102259.88;;;8.59;100.00
46430;BME280;32131;53.454;-6.180;2023-02-02T04:08:35;102260.88;;;8.62;100.00
46430;BME280;32131;53.454;-6.180;2023-02-02T04:11:08;102261.63;;;8.60;100.00
46430;BME280;32131;53.454;-6.180;2023-02-02T04:13:36;102257.41;;;8.62;100.00
46430;BME280;32131;53.454;-6.180;2023-02-02T04:16:05;102260.31;;;8.68;100.00
46430;BME280;32131;53.454;-6.180;2023-02-02T04:18:33;102254.47;;;8.72;100.00
46430;BME280;32131;53.454;-6.180;2023-02-02T04:21:04;102258.97;;;8.76;100.00
46430;BME280;32131;53.454;-6.180;2023-02-02T04:23:32;102247.03;;;8.78;100.00
46430;BME280;32131;53.454;-6.180;2023-02-02T04:26:00;102253.09;;;8.79;100.00
46430;BME280;32131;53.454;-6.180;2023-02-02T04:28:30;102248.56;;;8.75;100.00
46430;BME280;32131;53.454;-6.180;2023-02-02T04:30:58;102255.38;;;8.73;100.00
46430;BME280;32131;53.454;-6.180;2023-02-02T04:33:27;102251.97;;;8.74;100.00
46430;BME280;32131;53.454;-6.180;2023-02-02T04:35:55;102253.81;;;8.76;100.00
46430;BME280;32131;53.454;-6.180;2023-02-02T04:38:23;102252.19;;;8.78;100.00
46430;BME280;32131;53.454;-6.180;2023-02-02T04:40:51;102246.91;;;8.75;100.00
46430;BME280;32131;53.454;-6.180;2023-02-02T04:43:19;102245.13;;;8.74;100.00
46430;BME280;32131;53.454;-6.180;2023-02-02T04:45:53;102247.03;;;8.78;100.00
46430;BME280;32131;53.454;-6.180;2023-02-02T04:48:22;102248.00;;;8.80;100.00
46430;BME280;32131;53.454;-6.180;2023-02-02T04:50:50;102249.47;;;8.75;100.00
46430;BME280;32131;53.454;-6.180;2023-02-02T04:53:18;102247.50;;;8.70;100.00
46430;BME280;32131;53.454;-6.180;2023-02-02T04:55:46;102252.59;;;8.68;100.00
46430;BME280;32131;53.454;-6.180;2023-02-02T04:58:14;102254.13;;;8.64;100.00
46430;BME280;32131;53.454;-6.180;2023-02-02T05:00:42;102269.25;;;8.58;100.00
46430;BME280;32131;53.454;-6.180;2023-02-02T05:03:11;102262.28;;;8.56;100.00
46430;BME280;32131;53.454;-6.180;2023-02-02T05:05:39;102272.75;;;8.59;100.00
46430;BME280;32131;53.454;-6.180;2023-02-02T05:08:07;102264.28;;;8.61;100.00
46430;BME280;32131;53.454;-6.180;2023-02-02T05:10:39;102272.97;;;8.63;100.00
46430;BME280;32131;53.454;-6.180;2023-02-02T05:13:07;102273.75;;;8.62;100.00
46430;BME280;32131;53.454;-6.180;2023-02-02T05:15:36;102277.22;;;8.63;100.00
46430;BME280;32131;53.454;-6.180;2023-02-02T05:18:04;102273.88;;;8.65;100.00
46430;BME280;32131;53.454;-6.180;2023-02-02T05:20:33;102267.06;;;8.66;100.00
46430;BME280;32131;53.454;-6.180;2023-02-02T05:23:01;102278.25;;;8.67;100.00
46430;BME280;32131;53.454;-6.180;2023-02-02T05:25:29;102261.97;;;8.68;100.00
46430;BME280;32131;53.454;-6.180;2023-02-02T05:27:57;102268.91;;;8.69;100.00
46430;BME280;32131;53.454;-6.180;2023-02-02T05:30:25;102268.03;;;8.68;100.00
46430;BME280;32131;53.454;-6.180;2023-02-02T05:32:53;102260.31;;;8.68;100.00
46430;BME280;32131;53.454;-6.180;2023-02-02T05:35:21;102260.31;;;8.68;100.00
46430;BME280;32131;53.454;-6.180;2023-02-02T05:37:51;102260.00;;;8.62;100.00
46430;BME280;32131;53.454;-6.180;2023-02-02T05:40:19;102249.25;;;8.53;100.00
46430;BME280;32131;53.454;-6.180;2023-02-02T05:42:47;102251.69;;;8.49;100.00
46430;BME280;32131;53.454;-6.180;2023-02-02T05:45:15;102242.19;;;8.48;100.00
46430;BME280;32131;53.454;-6.180;2023-02-02T05:47:43;102242.38;;;8.52;100.00
46430;BME280;32131;53.454;-6.180;2023-02-02T05:50:12;102235.66;;;8.55;100.00
46430;BME280;32131;53.454;-6.180;2023-02-02T05:52:41;102233.97;;;8.56;100.00
46430;BME280;32131;53.454;-6.180;2023-02-02T05:55:11;102232.88;;;8.51;100.00
46430;BME280;32131;53.454;-6.180;2023-02-02T05:57:39;102239.78;;;8.52;100.00
46430;BME280;32131;53.454;-6.180;2023-02-02T06:00:08;102235.56;;;8.54;100.00
46430;BME280;32131;53.454;-6.180;2023-02-02T06:02:36;102241.41;;;8.49;100.00
46430;BME280;32131;53.454;-6.180;2023-02-02T06:05:05;102234.41;;;8.47;100.00
46430;BME280;32131;53.454;-6.180;2023-02-02T06:07:34;102240.97;;;8.42;100.00
46430;BME280;32131;53.454;-6.180;2023-02-02T06:10:02;102239.16;;;8.39;100.00
46430;BME280;32131;53.454;-6.180;2023-02-02T06:12:31;102243.66;;;8.43;100.00
46430;BME280;32131;53.454;-6.180;2023-02-02T06:14:59;102240.59;;;8.51;100.00
46430;BME280;32131;53.454;-6.180;2023-02-02T06:17:27;102231.38;;;8.56;100.00
46430;BME280;32131;53.454;-6.180;2023-02-02T06:19:55;102244.25;;;8.56;100.00
46430;BME280;32131;53.454;-6.180;2023-02-02T06:22:23;102232.06;;;8.52;100.00
46430;BME280;32131;53.454;-6.180;2023-02-02T06:24:51;102227.63;;;8.49;100.00
46430;BME280;32131;53.454;-6.180;2023-02-02T06:27:20;102234.63;;;8.52;100.00
46430;BME280;32131;53.454;-6.180;2023-02-02T06:29:49;102232.06;;;8.52;100.00
46430;BME280;32131;53.454;-6.180;2023-02-02T06:32:17;102226.16;;;8.54;100.00
46430;BME280;32131;53.454;-6.180;2023-02-02T06:34:45;102239.09;;;8.56;100.00
46430;BME280;32131;53.454;-6.180;2023-02-02T06:37:13;102238.25;;;8.55;100.00
46430;BME280;32131;53.454;-6.180;2023-02-02T06:39:41;102240.88;;;8.57;100.00
46430;BME280;32131;53.454;-6.180;2023-02-02T06:42:09;102233.09;;;8.55;100.00
46430;BME280;32131;53.454;-6.180;2023-02-02T06:44:48;102232.72;;;8.47;100.00
46430;BME280;32131;53.454;-6.180;2023-02-02T06:47:16;102234.81;;;8.38;100.00
46430;BME280;32131;53.454;-6.180;2023-02-02T06:49:44;102226.56;;;8.27;100.00
46430;BME280;32131;53.454;-6.180;2023-02-02T06:52:12;102224.28;;;8.15;100.00
46430;BME280;32131;53.454;-6.180;2023-02-02T06:54:40;102230.00;;;8.10;100.00
46430;BME280;32131;53.454;-6.180;2023-02-02T06:57:09;102220.44;;;8.07;100.00
46430;BME280;32131;53.454;-6.180;2023-02-02T06:59:37;102219.47;;;8.05;100.00
46430;BME280;32131;53.454;-6.180;2023-02-02T07:02:10;102228.91;;;8.05;100.00
46430;BME280;32131;53.454;-6.180;2023-02-02T07:04:38;102233.16;;;8.04;100.00
46430;BME280;32131;53.454;-6.180;2023-02-02T07:07:06;102247.28;;;8.12;100.00
46430;BME280;32131;53.454;-6.180;2023-02-02T07:09:35;102235.66;;;8.21;100.00
46430;BME280;32131;53.454;-6.180;2023-02-02T07:12:03;102237.97;;;8.32;100.00
46430;BME280;32131;53.454;-6.180;2023-02-02T07:14:31;102227.88;;;8.37;100.00
46430;BME280;32131;53.454;-6.180;2023-02-02T07:16:59;102231.25;;;8.36;100.00
46430;BME280;32131;53.454;-6.180;2023-02-02T07:19:28;102236.00;;;8.27;100.00
46430;BME280;32131;53.454;-6.180;2023-02-02T07:21:56;102239.03;;;8.19;100.00
46430;BME280;32131;53.454;-6.180;2023-02-02T07:24:24;102234.63;;;8.17;100.00
46430;BME280;32131;53.454;-6.180;2023-02-02T07:26:54;102243.91;;;8.13;100.00
46430;BME280;32131;53.454;-6.180;2023-02-02T07:29:23;102243.91;;;8.13;100.00
46430;BME280;32131;53.454;-6.180;2023-02-02T07:31:51;102245.50;;;8.11;100.00
46430;BME280;32131;53.454;-6.180;2023-02-02T07:34:21;102246.63;;;8.16;100.00
46430;BME280;32131;53.454;-6.180;2023-02-02T07:36:50;102248.47;;;8.19;100.00
46430;BME280;32131;53.454;-6.180;2023-02-02T07:39:18;102245.84;;;8.17;100.00
46430;BME280;32131;53.454;-6.180;2023-02-02T07:41:46;102243.03;;;8.13;100.00
46430;BME280;32131;53.454;-6.180;2023-02-02T07:44:15;102242.13;;;8.12;100.00
46430;BME280;32131;53.454;-6.180;2023-02-02T07:46:45;102239.03;;;8.19;100.00
46430;BME280;32131;53.454;-6.180;2023-02-02T07:49:15;102233.25;;;8.24;100.00
46430;BME280;32131;53.454;-6.180;2023-02-02T07:51:43;102229.56;;;8.18;100.00
46430;BME280;32131;53.454;-6.180;2023-02-02T07:54:16;102231.50;;;8.23;100.00
46430;BME280;32131;53.454;-6.180;2023-02-02T07:56:47;102227.44;;;8.28;100.00
46430;BME280;32131;53.454;-6.180;2023-02-02T07:59:15;102237.91;;;8.31;100.00
46430;BME280;32131;53.454;-6.180;2023-02-02T08:01:43;102230.69;;;8.24;100.00
46430;BME280;32131;53.454;-6.180;2023-02-02T08:04:11;102245.38;;;8.26;100.00
46430;BME280;32131;53.454;-6.180;2023-02-02T08:06:39;102227.50;;;8.11;100.00
46430;BME280;32131;53.454;-6.180;2023-02-02T08:09:08;102236.22;;;7.97;100.00
46430;BME280;32131;53.454;-6.180;2023-02-02T08:11:38;102233.25;;;7.89;100.00
46430;BME280;32131;53.454;-6.180;2023-02-02T08:14:06;102241.38;;;7.97;100.00
46430;BME280;32131;53.454;-6.180;2023-02-02T08:16:34;102241.84;;;8.06;100.00
46430;BME280;32131;53.454;-6.180;2023-02-02T08:19:03;102244.81;;;8.14;100.00
46430;BME280;32131;53.454;-6.180;2023-02-02T08:21:32;102226.13;;;8.18;100.00
46430;BME280;32131;53.454;-6.180;2023-02-02T08:24:00;102231.44;;;8.21;100.00
46430;BME280;32131;53.454;-6.180;2023-02-02T08:26:32;102239.84;;;8.18;100.00
46430;BME280;32131;53.454;-6.180;2023-02-02T08:29:05;102219.38;;;8.20;100.00
46430;BME280;32131;53.454;-6.180;2023-02-02T08:31:35;102226.06;;;8.16;100.00
46430;BME280;32131;53.454;-6.180;2023-02-02T08:34:05;102219.25;;;8.18;100.00
46430;BME280;32131;53.454;-6.180;2023-02-02T08:36:33;102227.31;;;8.25;100.00
46430;BME280;32131;53.454;-6.180;2023-02-02T08:39:03;102215.53;;;8.30;100.00
46430;BME280;32131;53.454;-6.180;2023-02-02T08:41:32;102222.75;;;8.37;100.00
46430;BME280;32131;53.454;-6.180;2023-02-02T08:44:04;102220.50;;;8.43;100.00
46430;BME280;32131;53.454;-6.180;2023-02-02T08:46:36;102215.88;;;8.54;100.00
46430;BME280;32131;53.454;-6.180;2023-02-02T08:49:05;102225.72;;;8.63;100.00
46430;BME280;32131;53.454;-6.180;2023-02-02T08:51:33;102233.88;;;8.72;100.00
46430;BME280;32131;53.454;-6.180;2023-02-02T08:54:01;102248.06;;;8.82;100.00
46430;BME280;32131;53.454;-6.180;2023-02-02T08:56:29;102244.13;;;8.90;100.00
46430;BME280;32131;53.454;-6.180;2023-02-02T08:58:57;102254.66;;;8.95;100.00
46430;BME280;32131;53.454;-6.180;2023-02-02T09:01:28;102266.88;;;8.99;100.00
46430;BME280;32131;53.454;-6.180;2023-02-02T09:03:58;102266.34;;;9.06;100.00
46430;BME280;32131;53.454;-6.180;2023-02-02T09:06:30;102272.75;;;9.15;100.00
46430;BME280;32131;53.454;-6.180;2023-02-02T09:08:58;102268.97;;;9.26;99.49
46430;BME280;32131;53.454;-6.180;2023-02-02T09:11:27;102269.19;;;9.31;98.59
46430;BME280;32131;53.454;-6.180;2023-02-02T09:13:56;102266.88;;;9.37;98.15
46430;BME280;32131;53.454;-6.180;2023-02-02T09:16:27;102262.88;;;9.43;97.61
46430;BME280;32131;53.454;-6.180;2023-02-02T09:18:56;102269.09;;;9.49;96.70
46430;BME280;32131;53.454;-6.180;2023-02-02T09:21:24;102272.84;;;9.55;96.59
46430;BME280;32131;53.454;-6.180;2023-02-02T09:23:53;102277.47;;;9.63;96.35
46430;BME280;32131;53.454;-6.180;2023-02-02T09:26:23;102280.25;;;9.67;95.69
46430;BME280;32131;53.454;-6.180;2023-02-02T09:28:54;102284.50;;;9.67;95.39
46430;BME280;32131;53.454;-6.180;2023-02-02T09:31:24;102287.03;;;9.65;95.26
46430;BME280;32131;53.454;-6.180;2023-02-02T09:34:00;102279.50;;;9.70;95.25
46430;BME280;32131;53.454;-6.180;2023-02-02T09:36:29;102280.34;;;9.70;95.23
46430;BME280;32131;53.454;-6.180;2023-02-02T09:38:59;102281.25;;;9.71;94.86
46430;BME280;32131;53.454;-6.180;2023-02-02T09:44:48;102277.56;;;9.66;94.24
46430;BME280;32131;53.454;-6.180;2023-02-02T09:47:23;102281.88;;;9.65;94.24
46430;BME280;32131;53.454;-6.180;2023-02-02T09:49:58;102282.69;;;9.64;94.10
46430;BME280;32131;53.454;-6.180;2023-02-02T09:52:29;102293.00;;;9.64;93.54
46430;BME280;32131;53.454;-6.180;2023-02-02T09:55:03;102289.94;;;9.73;93.18
46430;BME280;32131;53.454;-6.180;2023-02-02T09:57:37;102290.41;;;9.84;92.90
46430;BME280;32131;53.454;-6.180;2023-02-02T10:00:22;102302.94;;;9.96;92.57
46430;BME280;32131;53.454;-6.180;2023-02-02T10:02:56;102308.38;;;10.02;91.82
46430;BME280;32131;53.454;-6.180;2023-02-02T10:05:41;102311.00;;;10.03;91.49
46430;BME280;32131;53.454;-6.180;2023-02-02T10:08:16;102293.78;;;10.02;90.99
46430;BME280;32131;53.454;-6.180;2023-02-02T10:11:18;102290.44;;;10.05;91.17
46430;BME280;32131;53.454;-6.180;2023-02-02T10:13:50;102299.19;;;10.09;90.56
46430;BME280;32131;53.454;-6.180;2023-02-02T10:16:19;102303.75;;;10.14;90.72
46430;BME280;32131;53.454;-6.180;2023-02-02T10:18:55;102316.56;;;10.13;90.06
46430;BME280;32131;53.454;-6.180;2023-02-02T10:21:32;102303.75;;;10.14;90.24
46430;BME280;32131;53.454;-6.180;2023-02-02T10:24:02;102321.34;;;10.25;90.01
46430;BME280;32131;53.454;-6.180;2023-02-02T10:26:36;102313.13;;;10.33;89.50
46430;BME280;32131;53.454;-6.180;2023-02-02T10:29:12;102304.91;;;10.42;88.99
46430;BME280;32131;53.454;-6.180;2023-02-02T10:31:48;102318.91;;;10.47;88.53
46430;BME280;32131;53.454;-6.180;2023-02-02T10:34:22;102307.06;;;10.52;88.35
46430;BME280;32131;53.454;-6.180;2023-02-02T10:37:19;102306.28;;;10.55;88.06
46430;BME280;32131;53.454;-6.180;2023-02-02T10:40:13;102315.81;;;10.56;87.87
46430;BME280;32131;53.454;-6.180;2023-02-02T10:42:58;102321.09;;;10.59;87.86
46430;BME280;32131;53.454;-6.180;2023-02-02T10:45:49;102326.28;;;10.59;87.86
46430;BME280;32131;53.454;-6.180;2023-02-02T10:48:20;102325.19;;;10.54;87.99
46430;BME280;32131;53.454;-6.180;2023-02-02T10:50:51;102328.63;;;10.53;88.22
46430;BME280;32131;53.454;-6.180;2023-02-02T10:53:23;102334.47;;;10.49;88.52
46430;BME280;32131;53.454;-6.180;2023-02-02T10:55:59;102321.53;;;10.49;89.10
46430;BME280;32131;53.454;-6.180;2023-02-02T10:58:36;102330.06;;;10.46;89.20
46430;BME280;32131;53.454;-6.180;2023-02-02T11:01:07;102325.56;;;10.42;89.88
46430;BME280;32131;53.454;-6.180;2023-02-02T11:03:37;102333.41;;;10.44;90.40
46430;BME280;32131;53.454;-6.180;2023-02-02T11:06:06;102336.78;;;10.43;90.39
46430;BME280;32131;53.454;-6.180;2023-02-02T11:08:54;102336.78;;;10.43;90.89
46430;BME280;32131;53.454;-6.180;2023-02-02T11:11:26;102337.47;;;10.38;91.33
46430;BME280;32131;53.454;-6.180;2023-02-02T11:14:01;102324.94;;;10.48;91.60
46430;BME280;32131;53.454;-6.180;2023-02-02T11:16:31;102339.75;;;10.52;91.59
46430;BME280;32131;53.454;-6.180;2023-02-02T11:19:22;102333.69;;;10.51;91.04
46430;BME280;32131;53.454;-6.180;2023-02-02T11:21:52;102332.88;;;10.52;90.72
46430;BME280;32131;53.454;-6.180;2023-02-02T11:24:26;102333.22;;;10.60;90.46
46430;BME280;32131;53.454;-6.180;2023-02-02T11:26:56;102330.88;;;10.66;90.01
46430;BME280;32131;53.454;-6.180;2023-02-02T11:29:28;102322.53;;;10.74;89.49
46430;BME280;32131;53.454;-6.180;2023-02-02T11:31:57;102329.72;;;10.81;88.57
46430;BME280;32131;53.454;-6.180;2023-02-02T11:34:44;102325.81;;;10.91;87.45
46430;BME280;32131;53.454;-6.180;2023-02-02T11:37:13;102333.84;;;10.98;87.07
46430;BME280;32131;53.454;-6.180;2023-02-02T11:39:43;102326.22;;;11.01;85.44
46430;BME280;32131;53.454;-6.180;2023-02-02T11:42:14;102328.91;;;11.05;84.81
46430;BME280;32131;53.454;-6.180;2023-02-02T11:44:45;102339.50;;;11.11;83.87
46430;BME280;32131;53.454;-6.180;2023-02-02T11:47:19;102329.34;;;11.15;83.73
46430;BME280;32131;53.454;-6.180;2023-02-02T11:49:49;102340.84;;;11.24;83.24
46430;BME280;32131;53.454;-6.180;2023-02-02T11:52:20;102329.78;;;11.28;82.41
46430;BME280;32131;53.454;-6.180;2023-02-02T11:54:52;102336.91;;;11.33;82.07
46430;BME280;32131;53.454;-6.180;2023-02-02T11:57:24;102337.78;;;11.34;81.60
46430;BME280;32131;53.454;-6.180;2023-02-02T12:00:06;102326.69;;;11.37;81.45
46430;BME280;32131;53.454;-6.180;2023-02-02T12:02:45;102325.75;;;11.35;81.38
46430;BME280;32131;53.454;-6.180;2023-02-02T12:05:31;102331.25;;;11.21;81.34
46430;BME280;32131;53.454;-6.180;2023-02-02T12:08:00;102326.00;;;11.18;81.86
46430;BME280;32131;53.454;-6.180;2023-02-02T12:10:35;102326.81;;;11.17;81.92
46430;BME280;32131;53.454;-6.180;2023-02-02T12:13:08;102320.91;;;11.21;81.92
46430;BME280;32131;53.454;-6.180;2023-02-02T12:15:50;102314.00;;;11.20;82.03
46430;BME280;32131;53.454;-6.180;2023-02-02T12:18:33;102319.28;;;11.23;81.68
46430;BME280;32131;53.454;-6.180;2023-02-02T12:21:05;102304.13;;;11.32;81.93
46430;BME280;32131;53.454;-6.180;2023-02-02T12:23:53;102302.81;;;11.44;81.76
46430;BME280;32131;53.454;-6.180;2023-02-02T12:26:29;102305.28;;;11.41;81.26
46430;BME280;32131;53.454;-6.180;2023-02-02T12:29:18;102306.66;;;11.31;81.47
46430;BME280;32131;53.454;-6.180;2023-02-02T12:32:03;102300.47;;;11.27;81.66
46430;BME280;32131;53.454;-6.180;2023-02-02T12:34:44;102297.94;;;11.29;81.86
46430;BME280;32131;53.454;-6.180;2023-02-02T12:37:19;102292.00;;;11.31;81.78
46430;BME280;32131;53.454;-6.180;2023-02-02T12:40:01;102286.00;;;11.32;81.64
46430;BME280;32131;53.454;-6.180;2023-02-02T12:42:43;102279.16;;;11.33;80.42
46430;BME280;32131;53.454;-6.180;2023-02-02T12:45:35;102273.41;;;11.42;80.27
46430;BME280;32131;53.454;-6.180;2023-02-02T12:48:16;102284.06;;;11.50;79.25
46430;BME280;32131;53.454;-6.180;2023-02-02T12:50:56;102277.22;;;11.52;78.34
46430;BME280;32131;53.454;-6.180;2023-02-02T12:53:39;102268.78;;;11.57;78.22
46430;BME280;32131;53.454;-6.180;2023-02-02T12:56:17;102274.97;;;11.61;77.95
46430;BME280;32131;53.454;-6.180;2023-02-02T12:58:54;102278.03;;;11.75;77.77
46430;BME280;32131;53.454;-6.180;2023-02-02T13:01:45;102270.75;;;11.89;76.88
46430;BME280;32131;53.454;-6.180;2023-02-02T13:04:38;102275.63;;;12.04;76.09
46430;BME280;32131;53.454;-6.180;2023-02-02T13:07:29;102276.34;;;12.00;74.98
46430;BME280;32131;53.454;-6.180;2023-02-02T13:10:05;102269.66;;;11.82;74.56
46430;BME280;32131;53.454;-6.180;2023-02-02T13:12:38;102272.66;;;11.69;75.17
46430;BME280;32131;53.454;-6.180;2023-02-02T13:15:12;102274.50;;;11.73;75.53
46430;BME280;32131;53.454;-6.180;2023-02-02T13:17:44;102269.56;;;11.79;75.18
46430;BME280;32131;53.454;-6.180;2023-02-02T13:20:20;102274.63;;;11.76;74.75